createdAt,value
2022-12-22T00:01:55.640Z,7.20
2022-12-22T00:04:41.209Z,7.18
2022-12-22T00:07:26.676Z,7.18
2022-12-22T00:10:11.628Z,7.22
2022-12-22T00:12:57.911Z,7.16
2022-12-22T00:15:43.293Z,7.21
2022-12-22T00:18:33.819Z,7.21
2022-12-22T00:21:19.138Z,7.17
2022-12-22T00:24:03.952Z,7.21
2022-12-22T00:26:52.934Z,7.18
2022-12-22T00:29:38.671Z,7.17
2022-12-22T00:32:24.058Z,7.17
2022-12-22T00:35:10.495Z,7.13
2022-12-22T00:37:56.857Z,7.20
2022-12-22T00:40:45.710Z,7.23
2022-12-22T00:43:31.134Z,7.09
2022-12-22T00:46:18.420Z,7.25
2022-12-22T00:49:03.485Z,7.27
2022-12-22T00:51:49.919Z,7.27
2022-12-22T00:54:37.163Z,7.28
2022-12-22T00:57:22.540Z,7.28
2022-12-22T01:00:08.910Z,7.34
2022-12-22T01:02:54.048Z,7.33
2022-12-22T01:05:39.379Z,7.34
2022-12-22T01:08:24.648Z,7.35
2022-12-22T01:11:09.568Z,7.34
2022-12-22T01:13:54.279Z,7.35
2022-12-22T01:16:39.090Z,7.35
2022-12-22T01:19:23.863Z,7.37
2022-12-22T01:22:09.093Z,7.40
2022-12-22T01:24:53.824Z,7.37
2022-12-22T01:27:38.615Z,7.38
2022-12-22T01:30:23.953Z,7.36
2022-12-22T01:33:08.721Z,7.37
2022-12-22T01:35:54.077Z,7.34
2022-12-22T01:38:38.933Z,7.38
2022-12-22T01:41:28.778Z,7.37
2022-12-22T01:44:13.624Z,7.37
2022-12-22T01:47:04.605Z,7.39
2022-12-22T01:50:02.476Z,7.38
2022-12-22T01:52:51.325Z,7.40
2022-12-22T01:55:41.230Z,7.42
2022-12-22T01:58:39.208Z,7.37
2022-12-22T02:01:24.111Z,7.41
2022-12-22T02:04:09.246Z,7.45
2022-12-22T02:07:00.456Z,7.47
2022-12-22T02:10:08.046Z,7.47
2022-12-22T02:13:15.919Z,7.50
2022-12-22T02:16:12.164Z,7.47
2022-12-22T02:19:16.396Z,7.48
2022-12-22T02:22:21.911Z,7.51
2022-12-22T02:25:18.439Z,7.50
2022-12-22T02:28:06.001Z,7.48
2022-12-22T02:30:51.993Z,7.49
2022-12-22T02:33:39.379Z,7.49
2022-12-22T02:36:55.471Z,7.49
2022-12-22T02:40:01.804Z,7.48
2022-12-22T02:42:59.284Z,7.48
2022-12-22T02:45:58.905Z,7.49
2022-12-22T02:48:59.434Z,7.46
2022-12-22T02:51:47.264Z,7.44
2022-12-22T02:54:34.768Z,7.38
2022-12-22T02:57:25.120Z,7.43
2022-12-22T03:00:09.885Z,7.39
2022-12-22T03:02:54.917Z,7.38
2022-12-22T03:05:39.992Z,7.40
2022-12-22T03:08:24.863Z,7.40
2022-12-22T03:11:09.795Z,7.43
2022-12-22T03:13:54.606Z,7.43
2022-12-22T03:16:39.529Z,7.49
2022-12-22T03:19:24.703Z,7.49
2022-12-22T03:22:09.488Z,7.54
2022-12-22T03:24:54.397Z,7.53
2022-12-22T03:27:20.820Z,7.54
2022-12-22T03:29:47.226Z,7.55
2022-12-22T03:32:13.642Z,7.52
2022-12-22T03:34:40.047Z,7.53
2022-12-22T03:37:06.449Z,7.52
2022-12-22T03:39:32.883Z,7.50
2022-12-22T03:42:17.975Z,7.48
2022-12-22T03:45:02.746Z,7.46
2022-12-22T03:47:31.369Z,7.48
2022-12-22T03:49:58.113Z,7.45
2022-12-22T03:52:24.544Z,7.49
2022-12-22T03:54:51.278Z,7.49
2022-12-22T03:57:17.720Z,7.50
2022-12-22T03:59:44.152Z,7.48
2022-12-22T04:02:10.742Z,7.46
2022-12-22T04:04:37.271Z,7.45
2022-12-22T04:07:03.813Z,7.45
2022-12-22T04:09:30.255Z,7.43
2022-12-22T04:12:15.003Z,7.43
2022-12-22T04:14:41.431Z,7.41
2022-12-22T04:17:08.087Z,7.43
2022-12-22T04:19:34.532Z,7.43
2022-12-22T04:22:01.521Z,7.43
2022-12-22T04:24:28.070Z,7.44
2022-12-22T04:26:54.686Z,7.46
2022-12-22T04:29:21.184Z,7.46
2022-12-22T04:31:47.597Z,7.47
2022-12-22T04:34:14.058Z,7.47
2022-12-22T04:36:40.499Z,7.49
2022-12-22T04:39:06.891Z,7.52
2022-12-22T04:41:33.315Z,7.55
2022-12-22T04:43:59.858Z,7.58
2022-12-22T04:46:26.363Z,7.52
2022-12-22T04:48:59.285Z,7.65
2022-12-22T04:51:26.749Z,7.70
2022-12-22T04:53:53.140Z,7.70
2022-12-22T04:56:19.559Z,7.72
2022-12-22T04:58:45.956Z,7.77
2022-12-22T05:01:15.817Z,7.79
2022-12-22T05:03:42.671Z,7.84
2022-12-22T05:06:10.031Z,7.82
2022-12-22T05:08:36.944Z,7.89
2022-12-22T05:11:03.473Z,7.91
2022-12-22T05:13:31.738Z,7.94
2022-12-22T05:16:09.792Z,7.96
2022-12-22T05:18:36.992Z,7.97
2022-12-22T05:21:06.427Z,7.97
2022-12-22T05:23:33.417Z,8.01
2022-12-22T05:25:59.868Z,8.00
2022-12-22T05:28:26.317Z,8.01
2022-12-22T05:30:53.504Z,8.05
2022-12-22T05:33:20.943Z,8.03
2022-12-22T05:35:47.406Z,8.07
2022-12-22T05:38:13.847Z,8.07
2022-12-22T05:40:40.274Z,8.08
2022-12-22T05:43:06.715Z,8.14
2022-12-22T05:45:33.162Z,8.18
2022-12-22T05:47:59.655Z,8.20
2022-12-22T05:50:26.299Z,8.22
2022-12-22T05:53:04.441Z,8.23
2022-12-22T05:55:30.967Z,8.22
2022-12-22T05:57:57.423Z,8.24
2022-12-22T06:00:23.918Z,8.26
2022-12-22T06:02:50.463Z,8.25
2022-12-22T06:05:16.917Z,8.23
2022-12-22T06:07:43.405Z,8.20
2022-12-22T06:10:12.627Z,8.20
2022-12-22T06:12:40.265Z,8.17
2022-12-22T06:15:07.726Z,8.15
2022-12-22T06:17:36.777Z,8.15
2022-12-22T06:20:09.487Z,8.14
2022-12-22T06:22:36.009Z,8.15
2022-12-22T06:25:02.512Z,8.11
2022-12-22T06:27:28.931Z,8.11
2022-12-22T06:29:55.347Z,8.09
2022-12-22T06:32:21.731Z,8.07
2022-12-22T06:34:48.141Z,8.05
2022-12-22T06:37:14.524Z,8.03
2022-12-22T06:39:40.948Z,8.00
2022-12-22T06:42:27.317Z,8.01
2022-12-22T06:44:54.900Z,7.96
2022-12-22T06:47:21.948Z,7.94
2022-12-22T06:49:48.586Z,7.95
2022-12-22T06:52:14.991Z,7.96
2022-12-22T06:54:41.435Z,7.96
2022-12-22T06:57:07.840Z,7.95
2022-12-22T06:59:34.292Z,7.91
2022-12-22T07:02:00.842Z,7.91
2022-12-22T07:04:27.357Z,7.91
2022-12-22T07:06:53.772Z,7.90
2022-12-22T07:09:20.446Z,7.92
2022-12-22T07:11:46.845Z,7.73
2022-12-22T07:14:13.342Z,7.94
2022-12-22T07:16:39.880Z,7.96
2022-12-22T07:19:06.344Z,7.96
2022-12-22T07:21:32.732Z,7.96
2022-12-22T07:23:59.152Z,7.96
2022-12-22T07:26:25.623Z,7.97
2022-12-22T07:28:52.081Z,7.98
2022-12-22T07:31:18.956Z,7.99
2022-12-22T07:33:45.514Z,8.01
2022-12-22T07:36:15.088Z,8.07
2022-12-22T07:38:44.175Z,8.06
2022-12-22T07:41:31.285Z,8.11
2022-12-22T07:44:01.318Z,8.15
2022-12-22T07:46:30.378Z,8.19
2022-12-22T07:49:16.135Z,8.21
2022-12-22T07:51:43.241Z,8.22
2022-12-22T07:54:12.231Z,8.22
2022-12-22T07:56:39.074Z,8.24
2022-12-22T07:59:05.829Z,8.32
2022-12-22T08:01:32.590Z,8.36
2022-12-22T08:03:59.201Z,8.40
2022-12-22T08:06:26.438Z,8.43
2022-12-22T08:08:53.128Z,8.45
2022-12-22T08:11:19.632Z,8.45
2022-12-22T08:13:46.799Z,8.49
2022-12-22T08:16:14.404Z,8.45
2022-12-22T08:18:41.408Z,8.54
2022-12-22T08:21:09.017Z,8.56
2022-12-22T08:23:36.108Z,8.59
2022-12-22T08:26:31.069Z,8.56
2022-12-22T08:29:10.617Z,8.58
2022-12-22T08:31:38.072Z,8.55
2022-12-22T08:34:07.668Z,8.56
2022-12-22T08:36:38.268Z,8.57
2022-12-22T08:39:04.840Z,8.58
2022-12-22T08:41:50.302Z,8.52
2022-12-22T08:44:19.955Z,8.55
2022-12-22T08:46:47.277Z,8.59
2022-12-22T08:49:13.834Z,8.54
2022-12-22T08:51:40.430Z,8.52
2022-12-22T08:54:07.130Z,8.58
2022-12-22T08:56:34.371Z,8.63
2022-12-22T08:59:05.049Z,8.63
2022-12-22T09:01:33.205Z,8.62
2022-12-22T09:04:00.114Z,8.64
2022-12-22T09:06:28.499Z,8.63
2022-12-22T09:08:59.917Z,8.66
2022-12-22T09:11:28.101Z,8.67
2022-12-22T09:13:56.367Z,8.64
2022-12-22T09:16:24.816Z,8.69
2022-12-22T09:18:51.463Z,8.68
2022-12-22T09:21:18.111Z,8.76
2022-12-22T09:23:44.884Z,8.77
2022-12-22T09:26:13.616Z,8.77
2022-12-22T09:28:45.070Z,8.76
2022-12-22T09:31:14.994Z,8.73
2022-12-22T09:33:41.416Z,8.71
2022-12-22T09:36:13.985Z,8.70
2022-12-22T09:38:43.117Z,8.67
2022-12-22T09:41:15.413Z,8.70
2022-12-22T09:43:42.546Z,8.90
2022-12-22T09:46:27.597Z,8.99
2022-12-22T09:48:55.131Z,9.19
2022-12-22T09:51:27.076Z,9.37
2022-12-22T09:53:59.907Z,9.57
2022-12-22T09:56:28.169Z,9.75
2022-12-22T09:58:54.795Z,9.90
2022-12-22T10:01:39.180Z,9.93
2022-12-22T10:04:30.051Z,9.75
2022-12-22T10:07:10.377Z,9.53
2022-12-22T10:09:52.666Z,9.30
2022-12-22T10:12:23.053Z,9.12
2022-12-22T10:14:52.159Z,8.99
2022-12-22T10:17:34.184Z,8.87
2022-12-22T10:20:19.110Z,8.79
2022-12-22T10:22:49.695Z,8.72
2022-12-22T10:28:24.330Z,8.64
2022-12-22T10:31:10.681Z,8.61
2022-12-22T10:33:45.816Z,8.59
2022-12-22T10:36:14.427Z,8.58
2022-12-22T10:38:55.265Z,8.58
2022-12-22T10:41:24.443Z,8.56
2022-12-22T10:44:00.632Z,8.58
2022-12-22T10:46:44.146Z,8.56
2022-12-22T10:49:23.322Z,8.55
2022-12-22T10:51:56.168Z,8.51
2022-12-22T10:54:33.733Z,8.50
2022-12-22T10:57:01.179Z,8.46
2022-12-22T10:59:27.688Z,8.47
2022-12-22T11:01:54.192Z,8.46
2022-12-22T11:04:27.951Z,8.49
2022-12-22T11:06:58.387Z,8.51
2022-12-22T11:09:34.982Z,8.53
2022-12-22T11:12:17.489Z,8.54
2022-12-22T11:14:57.446Z,8.60
2022-12-22T11:17:32.871Z,8.64
2022-12-22T11:20:31.441Z,8.67
2022-12-22T11:23:05.607Z,8.74
2022-12-22T11:25:47.281Z,8.78
2022-12-22T11:28:47.950Z,8.80
2022-12-22T11:31:40.197Z,8.85
2022-12-22T11:34:09.539Z,8.84
2022-12-22T11:36:50.157Z,8.86
2022-12-22T11:39:23.298Z,8.87
2022-12-22T11:42:00.864Z,8.88
2022-12-22T11:44:39.860Z,8.88
2022-12-22T11:47:24.697Z,8.88
2022-12-22T11:50:58.555Z,8.90
2022-12-22T11:53:29.655Z,8.95
2022-12-22T11:56:23.826Z,9.00
2022-12-22T11:59:02.380Z,9.03
2022-12-22T12:02:01.587Z,9.06
2022-12-22T12:04:31.154Z,9.07
2022-12-22T12:07:25.980Z,9.12
2022-12-22T12:10:25.002Z,9.15
2022-12-22T12:13:12.858Z,9.19
2022-12-22T12:15:58.996Z,9.25
2022-12-22T12:18:26.768Z,9.26
2022-12-22T12:21:08.480Z,9.31
2022-12-22T12:23:59.824Z,9.38
2022-12-22T12:26:32.760Z,9.40
2022-12-22T12:29:28.406Z,9.45
2022-12-22T12:32:23.962Z,9.54
2022-12-22T12:34:56.992Z,9.56
2022-12-22T12:37:35.736Z,9.55
2022-12-22T12:40:26.863Z,9.64
2022-12-22T12:42:54.236Z,9.65
2022-12-22T12:45:39.654Z,9.69
2022-12-22T12:48:21.674Z,9.71
2022-12-22T12:50:55.470Z,9.77
2022-12-22T12:53:29.360Z,9.82
2022-12-22T12:56:01.558Z,9.88
2022-12-22T12:58:40.073Z,9.99
2022-12-22T13:01:18.585Z,10.05
2022-12-22T13:06:49.986Z,10.18
2022-12-22T13:12:39.791Z,10.15
2022-12-22T13:15:31.822Z,10.18
2022-12-22T13:17:59.028Z,10.14
2022-12-22T13:20:29.945Z,10.16
2022-12-22T13:22:59.037Z,10.12
2022-12-22T13:25:36.547Z,10.14
2022-12-22T13:28:03.619Z,10.14
2022-12-22T13:30:30.594Z,10.14
2022-12-22T13:33:02.011Z,10.15
2022-12-22T13:35:46.664Z,10.18
2022-12-22T13:38:35.814Z,10.21
2022-12-22T13:41:21.354Z,10.17
2022-12-22T13:43:59.514Z,10.23
2022-12-22T13:46:27.092Z,10.25
2022-12-22T13:48:56.823Z,10.29
2022-12-22T13:51:33.955Z,10.25
2022-12-22T13:54:22.796Z,10.28
2022-12-22T13:56:54.719Z,10.26
2022-12-22T13:59:40.515Z,10.25
2022-12-22T14:02:10.040Z,10.23
2022-12-22T14:04:38.954Z,10.23
2022-12-22T14:07:18.414Z,10.20
2022-12-22T14:09:46.516Z,10.19
2022-12-22T14:12:16.945Z,10.16
2022-12-22T14:14:45.868Z,10.16
2022-12-22T14:17:24.251Z,10.15
2022-12-22T14:19:53.537Z,10.13
2022-12-22T14:22:25.018Z,10.12
2022-12-22T14:24:55.560Z,10.09
2022-12-22T14:27:27.917Z,10.08
2022-12-22T14:29:54.738Z,10.08
2022-12-22T14:32:40.858Z,10.05
2022-12-22T14:35:19.409Z,10.04
2022-12-22T14:37:52.296Z,10.00
2022-12-22T14:40:36.027Z,10.02
2022-12-22T14:43:07.010Z,10.03
2022-12-22T14:45:33.941Z,10.03
2022-12-22T14:48:00.402Z,10.03
2022-12-22T14:50:28.412Z,10.03
2022-12-22T14:52:57.624Z,10.03
2022-12-22T14:55:42.108Z,10.05
2022-12-22T14:58:15.641Z,10.05
2022-12-22T15:00:48.298Z,9.98
2022-12-22T15:03:34.400Z,10.04
2022-12-22T15:06:24.480Z,10.04
2022-12-22T15:08:57.507Z,10.03
2022-12-22T15:11:24.412Z,10.02
2022-12-22T15:13:51.760Z,10.00
2022-12-22T15:16:21.409Z,9.99
2022-12-22T15:18:49.447Z,9.99
2022-12-22T15:21:17.868Z,9.98
2022-12-22T15:23:44.739Z,9.94
2022-12-22T15:26:11.395Z,9.95
2022-12-22T15:28:38.116Z,9.91
2022-12-22T15:31:11.790Z,9.88
2022-12-22T15:33:38.217Z,9.88
2022-12-22T15:36:06.402Z,9.82
2022-12-22T15:38:38.569Z,9.86
2022-12-22T15:41:05.791Z,9.83
2022-12-22T15:44:02.134Z,9.85
2022-12-22T15:46:18.857Z,9.82
2022-12-22T15:48:46.367Z,9.79
2022-12-22T15:51:22.324Z,9.79
2022-12-22T15:53:49.144Z,9.77
2022-12-22T15:56:20.237Z,9.75
2022-12-22T15:58:47.149Z,9.75
2022-12-22T16:01:13.672Z,9.66
2022-12-22T16:03:40.309Z,9.74
2022-12-22T16:06:13.689Z,9.70
2022-12-22T16:08:43.271Z,9.73
2022-12-22T16:11:09.788Z,9.73
2022-12-22T16:13:37.716Z,9.70
2022-12-22T16:16:05.082Z,9.71
2022-12-22T16:18:32.666Z,9.70
2022-12-22T16:21:07.837Z,9.72
2022-12-22T16:23:36.585Z,9.70
2022-12-22T16:26:04.791Z,9.71
2022-12-22T16:28:32.919Z,9.71
2022-12-22T16:31:00.488Z,9.70
2022-12-22T16:33:27.194Z,9.69
2022-12-22T16:35:53.708Z,9.70
2022-12-22T16:38:20.347Z,9.71
2022-12-22T16:40:50.275Z,9.72
2022-12-22T16:43:49.997Z,9.72
2022-12-22T16:46:19.680Z,9.68
2022-12-22T16:48:55.173Z,9.71
2022-12-22T16:51:25.752Z,9.73
2022-12-22T16:53:52.559Z,9.71
2022-12-22T16:56:22.695Z,9.71
2022-12-22T16:58:49.506Z,9.70
2022-12-22T17:01:27.109Z,9.70
2022-12-22T17:03:54.499Z,9.70
2022-12-22T17:06:21.115Z,9.67
2022-12-22T17:08:48.078Z,9.66
2022-12-22T17:11:26.024Z,9.65
2022-12-22T17:13:57.345Z,9.64
2022-12-22T17:16:23.957Z,9.61
2022-12-22T17:18:50.434Z,9.57
2022-12-22T17:21:19.160Z,9.53
2022-12-22T17:23:49.701Z,9.50
2022-12-22T17:26:19.244Z,9.47
2022-12-22T17:28:47.094Z,9.40
2022-12-22T17:31:19.194Z,9.40
2022-12-22T17:33:46.137Z,9.39
2022-12-22T17:36:30.512Z,9.36
2022-12-22T17:38:57.672Z,9.30
2022-12-22T17:41:24.197Z,9.24
2022-12-22T17:43:50.605Z,9.22
2022-12-22T17:46:19.297Z,9.19
2022-12-22T17:48:46.219Z,9.15
2022-12-22T17:51:19.540Z,9.12
2022-12-22T17:53:46.602Z,9.08
2022-12-22T17:56:20.475Z,8.95
2022-12-22T17:58:47.186Z,9.00
2022-12-22T18:01:40.697Z,8.95
2022-12-22T18:04:10.038Z,8.87
2022-12-22T18:06:40.986Z,8.86
2022-12-22T18:09:08.122Z,8.81
2022-12-22T18:11:36.317Z,8.77
2022-12-22T18:14:04.561Z,8.73
2022-12-22T18:16:31.030Z,8.70
2022-12-22T18:18:57.462Z,8.68
2022-12-22T18:21:24.899Z,8.66
2022-12-22T18:23:51.553Z,8.66
2022-12-22T18:26:27.879Z,8.64
2022-12-22T18:28:55.377Z,8.61
2022-12-22T18:31:23.051Z,8.58
2022-12-22T18:33:50.772Z,8.63
2022-12-22T18:36:19.576Z,8.62
2022-12-22T18:38:47.910Z,8.67
2022-12-22T18:41:20.277Z,8.67
2022-12-22T18:43:46.927Z,8.67
2022-12-22T18:46:13.432Z,8.67
2022-12-22T18:48:39.933Z,8.65
2022-12-22T18:51:15.300Z,8.66
2022-12-22T18:53:41.699Z,8.67
2022-12-22T18:56:11.724Z,8.60
2022-12-22T18:58:38.221Z,8.68
2022-12-22T19:01:04.943Z,8.68
2022-12-22T19:03:31.612Z,8.67
2022-12-22T19:05:58.550Z,8.65
2022-12-22T19:08:27.199Z,8.65
2022-12-22T19:11:03.922Z,8.69
2022-12-22T19:13:36.776Z,8.70
2022-12-22T19:16:03.709Z,8.69
2022-12-22T19:18:30.159Z,8.70
2022-12-22T19:20:57.010Z,8.69
2022-12-22T19:23:25.704Z,8.71
2022-12-22T19:26:08.519Z,8.70
2022-12-22T19:28:42.443Z,8.70
2022-12-22T19:31:16.047Z,8.72
2022-12-22T19:33:43.475Z,8.73
2022-12-22T19:36:25.755Z,8.77
2022-12-22T19:39:05.744Z,8.75
2022-12-22T19:41:38.307Z,8.78
2022-12-22T19:44:05.697Z,8.77
2022-12-22T19:46:34.532Z,8.80
2022-12-22T19:49:01.105Z,8.75
2022-12-22T19:51:28.837Z,8.78
2022-12-22T19:53:55.343Z,8.79
2022-12-22T19:56:28.107Z,8.81
2022-12-22T19:58:55.637Z,8.81
2022-12-22T20:01:22.641Z,8.81
2022-12-22T20:03:49.257Z,8.80
2022-12-22T20:06:17.475Z,8.80
2022-12-22T20:08:44.667Z,8.79
2022-12-22T20:11:17.060Z,8.81
2022-12-22T20:13:44.089Z,8.79
2022-12-22T20:16:15.187Z,8.77
2022-12-22T20:18:42.537Z,8.78
2022-12-22T20:21:21.150Z,8.77
2022-12-22T20:23:48.166Z,8.75
2022-12-22T20:26:19.221Z,8.76
2022-12-22T20:28:45.715Z,8.74
2022-12-22T20:31:14.528Z,8.74
2022-12-22T20:33:41.249Z,8.73
2022-12-22T20:36:19.271Z,8.72
2022-12-22T20:38:46.127Z,8.69
2022-12-22T20:41:12.585Z,8.66
2022-12-22T20:43:39.529Z,8.64
2022-12-22T20:46:15.893Z,8.62
2022-12-22T20:48:46.781Z,8.59
2022-12-22T20:51:18.160Z,8.58
2022-12-22T20:53:45.107Z,8.59
2022-12-22T20:56:28.099Z,8.56
2022-12-22T20:58:55.338Z,8.54
2022-12-22T21:01:23.516Z,8.55
2022-12-22T21:03:50.500Z,8.54
2022-12-22T21:06:29.224Z,8.54
2022-12-22T21:08:57.940Z,8.53
2022-12-22T21:11:25.541Z,8.52
2022-12-22T21:13:52.252Z,8.52
2022-12-22T21:16:23.671Z,8.49
2022-12-22T21:18:50.935Z,8.48
2022-12-22T21:21:17.546Z,8.48
2022-12-22T21:23:43.939Z,8.46
2022-12-22T21:26:29.171Z,8.46
2022-12-22T21:28:55.994Z,8.41
2022-12-22T21:31:22.508Z,8.42
2022-12-22T21:33:50.192Z,8.41
2022-12-22T21:36:22.621Z,8.39
2022-12-22T21:38:53.463Z,8.36
2022-12-22T21:41:39.859Z,8.35
2022-12-22T21:44:06.270Z,8.34
2022-12-22T21:46:33.329Z,8.32
2022-12-22T21:48:59.773Z,8.36
2022-12-22T21:51:26.193Z,8.37
2022-12-22T21:53:52.584Z,8.38
2022-12-22T21:56:19.367Z,8.37
2022-12-22T21:58:45.806Z,8.38
2022-12-22T22:01:15.828Z,8.40
2022-12-22T22:03:42.607Z,8.40
2022-12-22T22:06:09.068Z,8.42
2022-12-22T22:08:35.453Z,8.41
2022-12-22T22:11:01.836Z,8.40
2022-12-22T22:13:28.222Z,8.41
2022-12-22T22:15:54.682Z,8.41
2022-12-22T22:18:21.101Z,8.40
2022-12-22T22:20:47.899Z,8.41
2022-12-22T22:23:14.496Z,8.43
2022-12-22T22:25:41.009Z,8.45
2022-12-22T22:28:10.376Z,8.48
2022-12-22T22:30:36.812Z,8.49
2022-12-22T22:33:03.550Z,8.49
2022-12-22T22:35:29.998Z,8.48
2022-12-22T22:37:56.499Z,8.50
2022-12-22T22:40:23.588Z,8.51
2022-12-22T22:42:50.043Z,8.50
2022-12-22T22:45:23.037Z,8.51
2022-12-22T22:47:51.068Z,8.50
2022-12-22T22:50:18.907Z,8.52
2022-12-22T22:52:45.723Z,8.50
2022-12-22T22:55:12.734Z,8.50
2022-12-22T22:57:39.179Z,8.48
2022-12-22T23:00:06.497Z,8.47
2022-12-22T23:02:33.089Z,8.45
2022-12-22T23:04:59.612Z,8.44
2022-12-22T23:07:26.104Z,8.45
2022-12-22T23:09:52.573Z,8.43
2022-12-22T23:12:19.175Z,8.42
2022-12-22T23:14:45.643Z,8.40
2022-12-22T23:17:12.080Z,8.41
2022-12-22T23:19:38.572Z,8.41
2022-12-22T23:22:05.010Z,8.41
2022-12-22T23:24:31.439Z,8.41
2022-12-22T23:26:58.728Z,8.37
2022-12-22T23:29:25.228Z,8.40
2022-12-22T23:31:51.765Z,8.41
2022-12-22T23:34:18.234Z,8.38
2022-12-22T23:36:44.636Z,8.40
2022-12-22T23:39:11.188Z,8.39
2022-12-22T23:41:37.614Z,8.41
2022-12-22T23:44:04.024Z,8.38
2022-12-22T23:46:30.470Z,8.39
2022-12-22T23:48:58.455Z,8.37
2022-12-22T23:51:27.651Z,8.39
2022-12-22T23:53:55.383Z,8.40
2022-12-22T23:56:22.757Z,8.35
2022-12-22T23:58:54.573Z,8.40
